sensor_id;sensor_type;location;lat;lon;timestamp;temperature;humidity
37788;DHT22;23627;53.302;-6.362;2024-02-04T00:47:49;8.80;99.90
37788;DHT22;23627;53.302;-6.362;2024-02-04T00:53:12;8.70;99.90
37788;DHT22;23627;53.302;-6.362;2024-02-04T00:55:41;8.80;99.90
37788;DHT22;23627;53.302;-6.362;2024-02-04T00:58:08;8.70;99.90
37788;DHT22;23627;53.302;-6.362;2024-02-04T01:00:34;8.70;99.90
37788;DHT22;23627;53.302;-6.362;2024-02-04T01:40:43;8.80;99.90
37788;DHT22;23627;53.302;-6.362;2024-02-04T01:43:44;8.80;99.90
37788;DHT22;23627;53.302;-6.362;2024-02-04T02:33:07;8.80;99.90
37788;DHT22;23627;53.302;-6.362;2024-02-04T02:36:05;8.80;99.90
37788;DHT22;23627;53.302;-6.362;2024-02-04T02:39:21;8.80;99.90
37788;DHT22;23627;53.302;-6.362;2024-02-04T02:42:03;8.80;99.90
37788;DHT22;23627;53.302;-6.362;2024-02-04T02:44:54;8.80;99.90
37788;DHT22;23627;53.302;-6.362;2024-02-04T02:51:29;8.80;99.90
37788;DHT22;23627;53.302;-6.362;2024-02-04T02:54:41;8.80;99.90
37788;DHT22;23627;53.302;-6.362;2024-02-04T02:57:39;8.80;99.90
37788;DHT22;23627;53.302;-6.362;2024-02-04T03:01:15;8.80;99.90
37788;DHT22;23627;53.302;-6.362;2024-02-04T03:04:29;8.80;99.90
37788;DHT22;23627;53.302;-6.362;2024-02-04T03:20:29;8.80;99.90
37788;DHT22;23627;53.302;-6.362;2024-02-04T03:27:05;8.80;99.90
37788;DHT22;23627;53.302;-6.362;2024-02-04T03:29:58;8.80;99.90
37788;DHT22;23627;53.302;-6.362;2024-02-04T03:32:42;8.80;99.90
37788;DHT22;23627;53.302;-6.362;2024-02-04T03:35:09;8.80;99.90
37788;DHT22;23627;53.302;-6.362;2024-02-04T03:37:47;8.80;99.90
37788;DHT22;23627;53.302;-6.362;2024-02-04T03:40:17;8.80;99.90
37788;DHT22;23627;53.302;-6.362;2024-02-04T03:43:04;8.80;99.90
37788;DHT22;23627;53.302;-6.362;2024-02-04T03:45:42;8.80;99.90
37788;DHT22;23627;53.302;-6.362;2024-02-04T03:48:45;8.80;99.90
37788;DHT22;23627;53.302;-6.362;2024-02-04T03:51:21;8.80;99.90
37788;DHT22;23627;53.302;-6.362;2024-02-04T03:53:54;8.80;99.90
37788;DHT22;23627;53.302;-6.362;2024-02-04T03:56:25;8.80;99.90
37788;DHT22;23627;53.302;-6.362;2024-02-04T03:59:11;8.80;99.90
37788;DHT22;23627;53.302;-6.362;2024-02-04T04:01:51;8.80;99.90
37788;DHT22;23627;53.302;-6.362;2024-02-04T04:21:07;8.80;99.90
37788;DHT22;23627;53.302;-6.362;2024-02-04T04:23:46;8.70;99.90
37788;DHT22;23627;53.302;-6.362;2024-02-04T04:26:19;8.70;99.90
37788;DHT22;23627;53.302;-6.362;2024-02-04T04:28:48;8.70;99.90
37788;DHT22;23627;53.302;-6.362;2024-02-04T04:31:37;8.70;99.90
37788;DHT22;23627;53.302;-6.362;2024-02-04T04:34:45;8.70;99.90
37788;DHT22;23627;53.302;-6.362;2024-02-04T04:40:40;8.70;99.90
37788;DHT22;23627;53.302;-6.362;2024-02-04T04:46:56;8.70;99.90
37788;DHT22;23627;53.302;-6.362;2024-02-04T04:49:27;8.70;99.90
37788;DHT22;23627;53.302;-6.362;2024-02-04T04:52:37;8.70;99.90
37788;DHT22;23627;53.302;-6.362;2024-02-04T04:55:13;8.60;99.90
37788;DHT22;23627;53.302;-6.362;2024-02-04T04:57:53;8.60;99.90
37788;DHT22;23627;53.302;-6.362;2024-02-04T05:04:37;8.70;99.90
37788;DHT22;23627;53.302;-6.362;2024-02-04T05:07:22;8.70;99.90
37788;DHT22;23627;53.302;-6.362;2024-02-04T05:10:42;8.70;99.90
37788;DHT22;23627;53.302;-6.362;2024-02-04T05:16:55;8.70;99.90
37788;DHT22;23627;53.302;-6.362;2024-02-04T05:19:23;8.70;99.90
37788;DHT22;23627;53.302;-6.362;2024-02-04T05:21:52;8.70;99.90
37788;DHT22;23627;53.302;-6.362;2024-02-04T05:24:41;8.70;99.90
37788;DHT22;23627;53.302;-6.362;2024-02-04T05:27:31;8.70;99.90
37788;DHT22;23627;53.302;-6.362;2024-02-04T05:30:09;8.70;99.90
37788;DHT22;23627;53.302;-6.362;2024-02-04T05:33:04;8.70;99.90
37788;DHT22;23627;53.302;-6.362;2024-02-04T05:35:33;8.70;99.90
37788;DHT22;23627;53.302;-6.362;2024-02-04T05:38:33;8.70;99.90
37788;DHT22;23627;53.302;-6.362;2024-02-04T05:47:35;8.70;99.90
37788;DHT22;23627;53.302;-6.362;2024-02-04T05:53:22;8.70;99.90
37788;DHT22;23627;53.302;-6.362;2024-02-04T05:59:12;8.70;99.90
37788;DHT22;23627;53.302;-6.362;2024-02-04T06:05:40;8.70;99.90
37788;DHT22;23627;53.302;-6.362;2024-02-04T06:09:11;8.70;99.90
37788;DHT22;23627;53.302;-6.362;2024-02-04T06:12:19;8.80;99.90
37788;DHT22;23627;53.302;-6.362;2024-02-04T06:18:21;8.80;99.90
37788;DHT22;23627;53.302;-6.362;2024-02-04T06:20:50;8.80;99.90
37788;DHT22;23627;53.302;-6.362;2024-02-04T06:23:17;8.80;99.90
37788;DHT22;23627;53.302;-6.362;2024-02-04T06:26:06;8.80;99.90
37788;DHT22;23627;53.302;-6.362;2024-02-04T06:28:47;8.90;99.90
37788;DHT22;23627;53.302;-6.362;2024-02-04T06:31:27;8.90;99.90
37788;DHT22;23627;53.302;-6.362;2024-02-04T06:38:15;8.90;99.90
37788;DHT22;23627;53.302;-6.362;2024-02-04T06:40:50;9.00;99.90
37788;DHT22;23627;53.302;-6.362;2024-02-04T06:43:23;9.00;99.90
37788;DHT22;23627;53.302;-6.362;2024-02-04T06:45:57;9.00;99.90
37788;DHT22;23627;53.302;-6.362;2024-02-04T06:48:52;9.00;99.90
37788;DHT22;23627;53.302;-6.362;2024-02-04T06:51:50;9.00;99.90
37788;DHT22;23627;53.302;-6.362;2024-02-04T06:54:29;9.00;99.90
37788;DHT22;23627;53.302;-6.362;2024-02-04T07:00:22;9.10;99.90
37788;DHT22;23627;53.302;-6.362;2024-02-04T07:02:49;9.10;99.90
37788;DHT22;23627;53.302;-6.362;2024-02-04T07:05:47;9.10;99.90
37788;DHT22;23627;53.302;-6.362;2024-02-04T07:08:31;9.10;99.90
37788;DHT22;23627;53.302;-6.362;2024-02-04T07:11:55;9.10;99.90
37788;DHT22;23627;53.302;-6.362;2024-02-04T07:14:25;9.20;99.90
37788;DHT22;23627;53.302;-6.362;2024-02-04T07:17:06;9.20;99.90
37788;DHT22;23627;53.302;-6.362;2024-02-04T07:26:30;9.30;99.90
37788;DHT22;23627;53.302;-6.362;2024-02-04T07:29:02;9.30;99.90
37788;DHT22;23627;53.302;-6.362;2024-02-04T07:40:36;9.40;99.90
37788;DHT22;23627;53.302;-6.362;2024-02-04T07:43:13;9.40;99.90
37788;DHT22;23627;53.302;-6.362;2024-02-04T07:49:28;9.40;99.90
37788;DHT22;23627;53.302;-6.362;2024-02-04T07:51:55;9.40;99.90
37788;DHT22;23627;53.302;-6.362;2024-02-04T07:54:21;9.40;99.90
37788;DHT22;23627;53.302;-6.362;2024-02-04T08:00:43;9.50;99.90
37788;DHT22;23627;53.302;-6.362;2024-02-04T08:03:26;9.50;99.90
37788;DHT22;23627;53.302;-6.362;2024-02-04T08:06:20;9.50;99.90
37788;DHT22;23627;53.302;-6.362;2024-02-04T08:09:10;9.50;99.90
37788;DHT22;23627;53.302;-6.362;2024-02-04T08:11:44;9.60;99.90
37788;DHT22;23627;53.302;-6.362;2024-02-04T08:14:38;9.60;99.90
37788;DHT22;23627;53.302;-6.362;2024-02-04T08:17:20;9.60;99.90
37788;DHT22;23627;53.302;-6.362;2024-02-04T08:19:50;9.60;99.90
37788;DHT22;23627;53.302;-6.362;2024-02-04T08:23:13;9.70;99.90
37788;DHT22;23627;53.302;-6.362;2024-02-04T08:25:44;9.70;99.90
37788;DHT22;23627;53.302;-6.362;2024-02-04T08:32:21;9.80;99.90
37788;DHT22;23627;53.302;-6.362;2024-02-04T08:34:55;9.80;99.90
37788;DHT22;23627;53.302;-6.362;2024-02-04T08:37:29;9.80;99.90
37788;DHT22;23627;53.302;-6.362;2024-02-04T08:40:08;9.80;99.90
37788;DHT22;23627;53.302;-6.362;2024-02-04T08:43:02;9.90;99.90
37788;DHT22;23627;53.302;-6.362;2024-02-04T08:52:16;10.00;99.90
37788;DHT22;23627;53.302;-6.362;2024-02-04T08:54:42;10.00;99.90
37788;DHT22;23627;53.302;-6.362;2024-02-04T08:57:27;10.00;99.90
37788;DHT22;23627;53.302;-6.362;2024-02-04T08:59:54;10.00;99.90
37788;DHT22;23627;53.302;-6.362;2024-02-04T09:02:21;10.10;99.90
37788;DHT22;23627;53.302;-6.362;2024-02-04T09:04:47;10.10;99.90
37788;DHT22;23627;53.302;-6.362;2024-02-04T09:07:19;10.10;99.90
37788;DHT22;23627;53.302;-6.362;2024-02-04T09:09:49;10.20;99.90
37788;DHT22;23627;53.302;-6.362;2024-02-04T09:12:27;10.20;99.90
37788;DHT22;23627;53.302;-6.362;2024-02-04T09:15:31;10.20;99.90
37788;DHT22;23627;53.302;-6.362;2024-02-04T09:31:11;10.30;99.90
37788;DHT22;23627;53.302;-6.362;2024-02-04T09:33:50;10.30;99.90
37788;DHT22;23627;53.302;-6.362;2024-02-04T09:36:52;10.30;99.90
37788;DHT22;23627;53.302;-6.362;2024-02-04T09:39:44;10.40;99.90
37788;DHT22;23627;53.302;-6.362;2024-02-04T09:42:42;10.40;99.90
37788;DHT22;23627;53.302;-6.362;2024-02-04T09:45:14;10.40;99.90
37788;DHT22;23627;53.302;-6.362;2024-02-04T09:47:46;10.40;99.90
37788;DHT22;23627;53.302;-6.362;2024-02-04T09:50:24;10.50;99.90
37788;DHT22;23627;53.302;-6.362;2024-02-04T09:52:55;10.50;99.90
37788;DHT22;23627;53.302;-6.362;2024-02-04T09:55:36;10.50;99.90
37788;DHT22;23627;53.302;-6.362;2024-02-04T09:58:44;10.50;99.90
37788;DHT22;23627;53.302;-6.362;2024-02-04T10:01:22;10.50;99.90
37788;DHT22;23627;53.302;-6.362;2024-02-04T10:03:58;10.50;99.90
37788;DHT22;23627;53.302;-6.362;2024-02-04T10:06:49;10.60;99.90
37788;DHT22;23627;53.302;-6.362;2024-02-04T10:09:22;10.60;99.90
37788;DHT22;23627;53.302;-6.362;2024-02-04T10:11:48;10.60;99.90
37788;DHT22;23627;53.302;-6.362;2024-02-04T10:14:15;10.60;99.90
37788;DHT22;23627;53.302;-6.362;2024-02-04T10:16:47;10.60;99.90
37788;DHT22;23627;53.302;-6.362;2024-02-04T10:19:14;10.70;99.90
37788;DHT22;23627;53.302;-6.362;2024-02-04T10:21:41;10.70;99.90
37788;DHT22;23627;53.302;-6.362;2024-02-04T10:24:07;10.70;99.90
37788;DHT22;23627;53.302;-6.362;2024-02-04T10:27:06;10.70;99.90
37788;DHT22;23627;53.302;-6.362;2024-02-04T10:33:47;10.80;99.90
37788;DHT22;23627;53.302;-6.362;2024-02-04T10:36:40;10.90;99.90
37788;DHT22;23627;53.302;-6.362;2024-02-04T10:39:14;10.90;99.90
37788;DHT22;23627;53.302;-6.362;2024-02-04T10:42:24;10.90;99.90
37788;DHT22;23627;53.302;-6.362;2024-02-04T10:52:46;11.10;99.90
37788;DHT22;23627;53.302;-6.362;2024-02-04T10:55:23;11.20;99.90
37788;DHT22;23627;53.302;-6.362;2024-02-04T10:57:53;11.20;99.90
37788;DHT22;23627;53.302;-6.362;2024-02-04T11:00:24;11.30;99.90
37788;DHT22;23627;53.302;-6.362;2024-02-04T11:03:23;11.30;99.90
37788;DHT22;23627;53.302;-6.362;2024-02-04T11:06:30;11.40;99.90
37788;DHT22;23627;53.302;-6.362;2024-02-04T11:09:12;11.40;99.90
37788;DHT22;23627;53.302;-6.362;2024-02-04T11:11:42;11.50;99.90
37788;DHT22;23627;53.302;-6.362;2024-02-04T11:24:19;11.60;99.90
37788;DHT22;23627;53.302;-6.362;2024-02-04T11:30:20;11.80;99.90
37788;DHT22;23627;53.302;-6.362;2024-02-04T11:32:49;11.80;99.90
37788;DHT22;23627;53.302;-6.362;2024-02-04T11:35:19;11.90;99.90
37788;DHT22;23627;53.302;-6.362;2024-02-04T11:37:47;11.90;99.90
37788;DHT22;23627;53.302;-6.362;2024-02-04T11:40:46;12.00;99.90
37788;DHT22;23627;53.302;-6.362;2024-02-04T11:43:47;12.10;99.90
37788;DHT22;23627;53.302;-6.362;2024-02-04T11:46:46;12.10;99.90
37788;DHT22;23627;53.302;-6.362;2024-02-04T11:49:30;12.10;99.90
37788;DHT22;23627;53.302;-6.362;2024-02-04T11:51:58;12.20;99.90
37788;DHT22;23627;53.302;-6.362;2024-02-04T11:54:36;12.20;99.90
37788;DHT22;23627;53.302;-6.362;2024-02-04T11:57:09;12.30;99.90
37788;DHT22;23627;53.302;-6.362;2024-02-04T11:59:39;12.30;99.90
37788;DHT22;23627;53.302;-6.362;2024-02-04T12:02:18;12.30;99.90
37788;DHT22;23627;53.302;-6.362;2024-02-04T12:05:04;12.30;99.90
37788;DHT22;23627;53.302;-6.362;2024-02-04T12:08:03;12.30;99.90
37788;DHT22;23627;53.302;-6.362;2024-02-04T12:10:35;12.30;99.90
37788;DHT22;23627;53.302;-6.362;2024-02-04T12:13:06;12.20;99.90
37788;DHT22;23627;53.302;-6.362;2024-02-04T12:15:34;12.20;99.90
37788;DHT22;23627;53.302;-6.362;2024-02-04T12:18:14;12.20;99.90
37788;DHT22;23627;53.302;-6.362;2024-02-04T12:20:48;12.20;99.90
37788;DHT22;23627;53.302;-6.362;2024-02-04T12:23:18;12.30;99.90
37788;DHT22;23627;53.302;-6.362;2024-02-04T12:25:49;12.40;99.90
37788;DHT22;23627;53.302;-6.362;2024-02-04T12:28:21;12.40;99.90
37788;DHT22;23627;53.302;-6.362;2024-02-04T12:30:54;12.50;99.90
37788;DHT22;23627;53.302;-6.362;2024-02-04T12:33:20;12.60;99.90
37788;DHT22;23627;53.302;-6.362;2024-02-04T12:35:56;12.60;99.90
37788;DHT22;23627;53.302;-6.362;2024-02-04T12:38:24;12.70;99.90
37788;DHT22;23627;53.302;-6.362;2024-02-04T12:40:50;12.80;99.90
37788;DHT22;23627;53.302;-6.362;2024-02-04T12:43:20;12.80;99.90
37788;DHT22;23627;53.302;-6.362;2024-02-04T12:46:03;12.90;99.90
37788;DHT22;23627;53.302;-6.362;2024-02-04T12:48:31;13.00;99.90
37788;DHT22;23627;53.302;-6.362;2024-02-04T12:50:59;13.10;99.90
37788;DHT22;23627;53.302;-6.362;2024-02-04T12:53:27;13.10;99.90
37788;DHT22;23627;53.302;-6.362;2024-02-04T12:55:59;13.20;99.90
37788;DHT22;23627;53.302;-6.362;2024-02-04T12:58:25;13.30;99.90
37788;DHT22;23627;53.302;-6.362;2024-02-04T13:01:27;13.40;99.90
37788;DHT22;23627;53.302;-6.362;2024-02-04T13:03:55;13.40;99.90
37788;DHT22;23627;53.302;-6.362;2024-02-04T13:06:21;13.50;99.90
37788;DHT22;23627;53.302;-6.362;2024-02-04T13:08:47;13.50;99.90
37788;DHT22;23627;53.302;-6.362;2024-02-04T13:11:22;13.60;99.90
37788;DHT22;23627;53.302;-6.362;2024-02-04T13:13:47;13.60;99.90
37788;DHT22;23627;53.302;-6.362;2024-02-04T13:16:35;13.60;99.90
37788;DHT22;23627;53.302;-6.362;2024-02-04T13:19:02;13.60;99.90
37788;DHT22;23627;53.302;-6.362;2024-02-04T13:21:29;13.60;99.90
37788;DHT22;23627;53.302;-6.362;2024-02-04T13:23:58;13.60;99.90
37788;DHT22;23627;53.302;-6.362;2024-02-04T13:26:25;13.60;99.90
37788;DHT22;23627;53.302;-6.362;2024-02-04T13:28:51;13.70;99.90
37788;DHT22;23627;53.302;-6.362;2024-02-04T13:31:33;13.60;99.90
37788;DHT22;23627;53.302;-6.362;2024-02-04T13:34:06;13.60;99.90
37788;DHT22;23627;53.302;-6.362;2024-02-04T13:36:56;13.70;99.90
37788;DHT22;23627;53.302;-6.362;2024-02-04T13:39:30;13.70;99.90
37788;DHT22;23627;53.302;-6.362;2024-02-04T13:42:11;13.70;99.90
37788;DHT22;23627;53.302;-6.362;2024-02-04T13:45:11;13.80;99.90
37788;DHT22;23627;53.302;-6.362;2024-02-04T13:48:00;13.80;99.90
37788;DHT22;23627;53.302;-6.362;2024-02-04T13:50:49;13.80;99.90
37788;DHT22;23627;53.302;-6.362;2024-02-04T13:53:44;13.80;99.90
37788;DHT22;23627;53.302;-6.362;2024-02-04T13:56:42;13.80;99.90
37788;DHT22;23627;53.302;-6.362;2024-02-04T13:59:09;13.80;99.90
37788;DHT22;23627;53.302;-6.362;2024-02-04T14:01:46;13.80;99.90
37788;DHT22;23627;53.302;-6.362;2024-02-04T14:04:53;13.90;99.90
37788;DHT22;23627;53.302;-6.362;2024-02-04T14:07:29;13.90;99.90
37788;DHT22;23627;53.302;-6.362;2024-02-04T14:10:36;13.90;99.90
37788;DHT22;23627;53.302;-6.362;2024-02-04T14:13:20;13.90;99.90
37788;DHT22;23627;53.302;-6.362;2024-02-04T14:15:51;13.80;99.90
37788;DHT22;23627;53.302;-6.362;2024-02-04T14:18:38;13.80;99.90
37788;DHT22;23627;53.302;-6.362;2024-02-04T14:25:21;13.90;99.90
37788;DHT22;23627;53.302;-6.362;2024-02-04T14:27:52;14.00;99.90
37788;DHT22;23627;53.302;-6.362;2024-02-04T14:30:56;14.00;99.90
37788;DHT22;23627;53.302;-6.362;2024-02-04T14:33:42;14.00;99.90
37788;DHT22;23627;53.302;-6.362;2024-02-04T14:36:27;14.10;99.90
37788;DHT22;23627;53.302;-6.362;2024-02-04T14:39:03;14.10;99.90
37788;DHT22;23627;53.302;-6.362;2024-02-04T14:42:02;14.10;99.90
37788;DHT22;23627;53.302;-6.362;2024-02-04T14:44:54;14.20;99.90
37788;DHT22;23627;53.302;-6.362;2024-02-04T14:47:44;14.20;99.90
37788;DHT22;23627;53.302;-6.362;2024-02-04T14:50:27;14.20;99.90
37788;DHT22;23627;53.302;-6.362;2024-02-04T14:52:58;14.20;99.90
37788;DHT22;23627;53.302;-6.362;2024-02-04T14:55:25;14.20;99.90
37788;DHT22;23627;53.302;-6.362;2024-02-04T14:57:54;14.20;99.90
37788;DHT22;23627;53.302;-6.362;2024-02-04T15:00:22;14.10;99.90
37788;DHT22;23627;53.302;-6.362;2024-02-04T15:02:51;14.00;99.90
37788;DHT22;23627;53.302;-6.362;2024-02-04T15:05:17;13.90;99.90
37788;DHT22;23627;53.302;-6.362;2024-02-04T15:07:57;13.80;99.90
37788;DHT22;23627;53.302;-6.362;2024-02-04T15:10:34;13.80;99.90
37788;DHT22;23627;53.302;-6.362;2024-02-04T15:13:13;13.70;99.90
37788;DHT22;23627;53.302;-6.362;2024-02-04T15:15:41;13.60;99.90
37788;DHT22;23627;53.302;-6.362;2024-02-04T15:18:16;13.50;99.90
37788;DHT22;23627;53.302;-6.362;2024-02-04T15:20:54;13.40;99.90
37788;DHT22;23627;53.302;-6.362;2024-02-04T15:23:45;13.30;99.90
37788;DHT22;23627;53.302;-6.362;2024-02-04T15:29:58;13.20;99.90
37788;DHT22;23627;53.302;-6.362;2024-02-04T15:32:37;13.10;99.90
37788;DHT22;23627;53.302;-6.362;2024-02-04T15:35:17;13.00;99.90
37788;DHT22;23627;53.302;-6.362;2024-02-04T15:37:48;12.90;99.90
37788;DHT22;23627;53.302;-6.362;2024-02-04T15:40:38;12.90;99.90
37788;DHT22;23627;53.302;-6.362;2024-02-04T15:43:13;12.80;99.90
37788;DHT22;23627;53.302;-6.362;2024-02-04T15:46:07;12.80;99.90
37788;DHT22;23627;53.302;-6.362;2024-02-04T15:49:02;12.80;99.90
37788;DHT22;23627;53.302;-6.362;2024-02-04T15:55:32;12.70;99.90
37788;DHT22;23627;53.302;-6.362;2024-02-04T16:01:39;12.60;99.90
37788;DHT22;23627;53.302;-6.362;2024-02-04T16:04:12;12.60;99.90
37788;DHT22;23627;53.302;-6.362;2024-02-04T16:07:04;12.50;99.90
37788;DHT22;23627;53.302;-6.362;2024-02-04T16:10:15;12.50;99.90
37788;DHT22;23627;53.302;-6.362;2024-02-04T16:12:57;12.50;99.90
37788;DHT22;23627;53.302;-6.362;2024-02-04T16:15:37;12.40;99.90
37788;DHT22;23627;53.302;-6.362;2024-02-04T16:18:15;12.40;99.90
37788;DHT22;23627;53.302;-6.362;2024-02-04T16:20:51;12.40;99.90
37788;DHT22;23627;53.302;-6.362;2024-02-04T16:23:35;12.30;99.90
37788;DHT22;23627;53.302;-6.362;2024-02-04T16:26:08;12.30;99.90
37788;DHT22;23627;53.302;-6.362;2024-02-04T16:28:44;12.30;99.90
37788;DHT22;23627;53.302;-6.362;2024-02-04T16:31:16;12.30;99.90
37788;DHT22;23627;53.302;-6.362;2024-02-04T16:33:56;12.20;99.90
37788;DHT22;23627;53.302;-6.362;2024-02-04T16:36:24;12.20;99.90
37788;DHT22;23627;53.302;-6.362;2024-02-04T16:38:56;12.20;99.90
37788;DHT22;23627;53.302;-6.362;2024-02-04T16:41:27;12.20;99.90
37788;DHT22;23627;53.302;-6.362;2024-02-04T16:43:59;12.20;99.90
37788;DHT22;23627;53.302;-6.362;2024-02-04T16:46:39;12.20;99.90
37788;DHT22;23627;53.302;-6.362;2024-02-04T16:49:16;12.10;99.90
37788;DHT22;23627;53.302;-6.362;2024-02-04T16:51:56;12.10;99.90
37788;DHT22;23627;53.302;-6.362;2024-02-04T16:54:28;12.10;99.90
37788;DHT22;23627;53.302;-6.362;2024-02-04T16:56:58;12.10;99.90
37788;DHT22;23627;53.302;-6.362;2024-02-04T16:59:55;12.00;99.90
37788;DHT22;23627;53.302;-6.362;2024-02-04T17:02:43;12.00;99.90
37788;DHT22;23627;53.302;-6.362;2024-02-04T17:05:11;12.00;99.90
37788;DHT22;23627;53.302;-6.362;2024-02-04T17:07:38;12.00;99.90
37788;DHT22;23627;53.302;-6.362;2024-02-04T17:10:14;12.00;99.90
37788;DHT22;23627;53.302;-6.362;2024-02-04T17:12:46;11.90;99.90
37788;DHT22;23627;53.302;-6.362;2024-02-04T17:19:12;11.90;99.90
37788;DHT22;23627;53.302;-6.362;2024-02-04T17:22:11;11.80;99.90
37788;DHT22;23627;53.302;-6.362;2024-02-04T17:24:51;11.80;99.90
37788;DHT22;23627;53.302;-6.362;2024-02-04T17:27:44;11.80;99.90
37788;DHT22;23627;53.302;-6.362;2024-02-04T17:30:21;11.80;99.90
37788;DHT22;23627;53.302;-6.362;2024-02-04T17:33:14;11.80;99.90
37788;DHT22;23627;53.302;-6.362;2024-02-04T17:35:47;11.70;99.90
37788;DHT22;23627;53.302;-6.362;2024-02-04T17:38:20;11.70;99.90
37788;DHT22;23627;53.302;-6.362;2024-02-04T17:40:47;11.70;99.90
37788;DHT22;23627;53.302;-6.362;2024-02-04T17:43:24;11.70;99.90
37788;DHT22;23627;53.302;-6.362;2024-02-04T17:45:54;11.70;99.90
37788;DHT22;23627;53.302;-6.362;2024-02-04T17:48:27;11.60;99.90
37788;DHT22;23627;53.302;-6.362;2024-02-04T17:51:21;11.60;99.90
37788;DHT22;23627;53.302;-6.362;2024-02-04T17:54:12;11.60;99.90
37788;DHT22;23627;53.302;-6.362;2024-02-04T17:57:04;11.60;99.90
37788;DHT22;23627;53.302;-6.362;2024-02-04T17:59:40;11.60;99.90
37788;DHT22;23627;53.302;-6.362;2024-02-04T18:02:25;11.60;99.90
37788;DHT22;23627;53.302;-6.362;2024-02-04T18:05:02;11.50;99.90
37788;DHT22;23627;53.302;-6.362;2024-02-04T18:07:35;11.50;99.90
37788;DHT22;23627;53.302;-6.362;2024-02-04T18:10:05;11.50;99.90
37788;DHT22;23627;53.302;-6.362;2024-02-04T18:12:35;11.50;99.90
37788;DHT22;23627;53.302;-6.362;2024-02-04T18:15:12;11.50;99.90
37788;DHT22;23627;53.302;-6.362;2024-02-04T18:17:49;11.50;99.90
37788;DHT22;23627;53.302;-6.362;2024-02-04T18:20:24;11.50;99.90
37788;DHT22;23627;53.302;-6.362;2024-02-04T18:23:19;11.50;99.90
37788;DHT22;23627;53.302;-6.362;2024-02-04T18:25:52;11.50;99.90
37788;DHT22;23627;53.302;-6.362;2024-02-04T18:31:37;11.50;99.90
37788;DHT22;23627;53.302;-6.362;2024-02-04T18:34:18;11.50;99.90
37788;DHT22;23627;53.302;-6.362;2024-02-04T18:37:18;11.50;99.90
37788;DHT22;23627;53.302;-6.362;2024-02-04T18:40:11;11.50;99.90
37788;DHT22;23627;53.302;-6.362;2024-02-04T18:43:15;11.50;99.90
37788;DHT22;23627;53.302;-6.362;2024-02-04T18:46:09;11.50;99.90
37788;DHT22;23627;53.302;-6.362;2024-02-04T18:48:43;11.50;99.90
37788;DHT22;23627;53.302;-6.362;2024-02-04T18:51:20;11.40;99.90
37788;DHT22;23627;53.302;-6.362;2024-02-04T18:53:57;11.50;99.90
37788;DHT22;23627;53.302;-6.362;2024-02-04T18:56:40;11.40;99.90
37788;DHT22;23627;53.302;-6.362;2024-02-04T18:59:16;11.40;99.90
37788;DHT22;23627;53.302;-6.362;2024-02-04T19:01:48;11.40;99.90
37788;DHT22;23627;53.302;-6.362;2024-02-04T19:04:20;11.40;99.90
37788;DHT22;23627;53.302;-6.362;2024-02-04T19:06:46;11.40;99.90
37788;DHT22;23627;53.302;-6.362;2024-02-04T19:09:15;11.40;99.90
37788;DHT22;23627;53.302;-6.362;2024-02-04T19:11:47;11.40;99.90
37788;DHT22;23627;53.302;-6.362;2024-02-04T19:14:19;11.40;99.90
37788;DHT22;23627;53.302;-6.362;2024-02-04T19:16:51;11.40;99.90
37788;DHT22;23627;53.302;-6.362;2024-02-04T19:19:26;11.40;99.90
37788;DHT22;23627;53.302;-6.362;2024-02-04T19:21:58;11.40;99.90
37788;DHT22;23627;53.302;-6.362;2024-02-04T19:24:25;11.40;99.90
37788;DHT22;23627;53.302;-6.362;2024-02-04T19:26:56;11.40;99.90
37788;DHT22;23627;53.302;-6.362;2024-02-04T19:29:29;11.40;99.90
37788;DHT22;23627;53.302;-6.362;2024-02-04T19:31:57;11.40;99.90
37788;DHT22;23627;53.302;-6.362;2024-02-04T19:34:23;11.40;99.90
37788;DHT22;23627;53.302;-6.362;2024-02-04T19:36:49;11.30;99.90
37788;DHT22;23627;53.302;-6.362;2024-02-04T19:39:14;11.30;99.90
37788;DHT22;23627;53.302;-6.362;2024-02-04T19:41:40;11.40;99.90
37788;DHT22;23627;53.302;-6.362;2024-02-04T19:44:06;11.30;99.90
37788;DHT22;23627;53.302;-6.362;2024-02-04T19:46:32;11.30;99.90
37788;DHT22;23627;53.302;-6.362;2024-02-04T19:48:57;11.30;99.90
37788;DHT22;23627;53.302;-6.362;2024-02-04T19:51:23;11.30;99.90
37788;DHT22;23627;53.302;-6.362;2024-02-04T19:53:49;11.30;99.90
37788;DHT22;23627;53.302;-6.362;2024-02-04T19:56:15;11.30;99.90
37788;DHT22;23627;53.302;-6.362;2024-02-04T19:58:40;11.30;99.90
37788;DHT22;23627;53.302;-6.362;2024-02-04T20:01:09;11.30;99.90
37788;DHT22;23627;53.302;-6.362;2024-02-04T20:03:35;11.30;99.90
37788;DHT22;23627;53.302;-6.362;2024-02-04T20:06:01;11.30;99.90
37788;DHT22;23627;53.302;-6.362;2024-02-04T20:08:27;11.30;99.90
37788;DHT22;23627;53.302;-6.362;2024-02-04T20:10:54;11.30;99.90
37788;DHT22;23627;53.302;-6.362;2024-02-04T20:13:20;11.30;99.90
37788;DHT22;23627;53.302;-6.362;2024-02-04T20:15:47;11.30;99.90
37788;DHT22;23627;53.302;-6.362;2024-02-04T20:18:12;11.30;99.90
37788;DHT22;23627;53.302;-6.362;2024-02-04T20:20:39;11.30;99.90
37788;DHT22;23627;53.302;-6.362;2024-02-04T20:23:05;11.20;99.90
37788;DHT22;23627;53.302;-6.362;2024-02-04T20:25:31;11.20;99.90
37788;DHT22;23627;53.302;-6.362;2024-02-04T20:27:57;11.20;99.90
37788;DHT22;23627;53.302;-6.362;2024-02-04T20:30:23;11.20;99.90
37788;DHT22;23627;53.302;-6.362;2024-02-04T20:32:58;11.20;99.90
37788;DHT22;23627;53.302;-6.362;2024-02-04T20:35:25;11.20;99.90
37788;DHT22;23627;53.302;-6.362;2024-02-04T20:37:52;11.20;99.90
37788;DHT22;23627;53.302;-6.362;2024-02-04T20:40:24;11.20;99.90
37788;DHT22;23627;53.302;-6.362;2024-02-04T20:42:50;11.20;99.90
37788;DHT22;23627;53.302;-6.362;2024-02-04T20:45:16;11.20;99.90
37788;DHT22;23627;53.302;-6.362;2024-02-04T20:47:42;11.20;99.90
37788;DHT22;23627;53.302;-6.362;2024-02-04T20:50:11;11.20;99.90
37788;DHT22;23627;53.302;-6.362;2024-02-04T20:52:37;11.10;99.90
37788;DHT22;23627;53.302;-6.362;2024-02-04T20:55:02;11.10;99.90
37788;DHT22;23627;53.302;-6.362;2024-02-04T20:57:28;11.10;99.90
37788;DHT22;23627;53.302;-6.362;2024-02-04T20:59:54;11.10;99.90
37788;DHT22;23627;53.302;-6.362;2024-02-04T21:02:19;11.10;99.90
37788;DHT22;23627;53.302;-6.362;2024-02-04T21:04:45;11.10;99.90
37788;DHT22;23627;53.302;-6.362;2024-02-04T21:07:11;11.10;99.90
37788;DHT22;23627;53.302;-6.362;2024-02-04T21:09:36;11.10;99.90
37788;DHT22;23627;53.302;-6.362;2024-02-04T21:12:04;11.10;99.90
37788;DHT22;23627;53.302;-6.362;2024-02-04T21:14:30;11.10;99.90
37788;DHT22;23627;53.302;-6.362;2024-02-04T21:16:55;11.10;99.90
37788;DHT22;23627;53.302;-6.362;2024-02-04T21:19:21;11.10;99.90
37788;DHT22;23627;53.302;-6.362;2024-02-04T21:21:47;11.10;99.90
37788;DHT22;23627;53.302;-6.362;2024-02-04T21:24:13;11.10;99.90
37788;DHT22;23627;53.302;-6.362;2024-02-04T21:26:38;11.10;99.90
37788;DHT22;23627;53.302;-6.362;2024-02-04T21:29:04;11.10;99.90
37788;DHT22;23627;53.302;-6.362;2024-02-04T21:31:30;11.10;99.90
37788;DHT22;23627;53.302;-6.362;2024-02-04T21:33:55;11.10;99.90
37788;DHT22;23627;53.302;-6.362;2024-02-04T21:36:21;11.10;99.90